Time;durP1;ratioP1;P1;durP2;ratioP2;P2;SDS_P1;SDS_P2;PMS_P1;PMS_P2;Temp;Humidity;BMP_temperature;BMP_pressure;BME280_temperature;BME280_humidity;BME280_pressure;Samples;Min_cycle;Max_cycle;Signal;HPM_P1;HPM_P2
2023/02/19 00:03:23;;;;;;;4.15;3.15;;;;;;;;;;10260795;28;20034;-84
2023/02/19 00:08:30;;;;;;;4.72;2.55;;;;;;;;;;10276522;28;20766;-83
2023/02/19 00:13:36;;;;;;;4.93;2.70;;;;;;;;;;10262226;28;20038;-84
2023/02/19 00:18:40;;;;;;;2.33;2.10;;;;;;;;;;10274218;28;20466;-83
2023/02/19 00:23:49;;;;;;;2.58;1.92;;;;;;;;;;10274146;28;20050;-83
2023/02/19 00:28:53;;;;;;;1.60;1.50;;;;;;;;;;10275829;28;20042;-83
2023/02/19 00:33:58;;;;;;;2.50;1.85;;;;;;;;;;10262211;28;20058;-82
2023/02/19 00:39:03;;;;;;;2.13;2.03;;;;;;;;;;10268980;28;20051;-83
2023/02/19 00:44:10;;;;;;;1.60;1.50;;;;;;;;;;10280487;28;20047;-82
2023/02/19 00:49:17;;;;;;;1.45;1.35;;;;;;;;;;10290633;28;20050;-83
2023/02/19 00:54:22;;;;;;;1.48;1.30;;;;;;;;;;10276758;28;20062;-83
2023/02/19 00:59:25;;;;;;;2.15;1.73;;;;;;;;;;10256402;28;20604;-82
2023/02/19 01:04:29;;;;;;;1.45;1.35;;;;;;;;;;10272111;28;20061;-83
2023/02/19 01:09:33;;;;;;;1.95;1.70;;;;;;;;;;10269965;28;20046;-83
2023/02/19 01:14:37;;;;;;;1.95;1.75;;;;;;;;;;10278457;28;20486;-83
2023/02/19 01:19:40;;;;;;;2.08;1.25;;;;;;;;;;10267701;28;20042;-84
2023/02/19 01:24:45;;;;;;;1.92;1.60;;;;;;;;;;10262689;28;20051;-84
2023/02/19 01:29:48;;;;;;;2.17;1.73;;;;;;;;;;10276478;28;20061;-84
2023/02/19 01:34:51;;;;;;;2.05;1.60;;;;;;;;;;10276796;28;20073;-83
2023/02/19 01:39:56;;;;;;;1.92;1.67;;;;;;;;;;10276822;28;20060;-84
2023/02/19 01:45:26;;;;;;;1.13;0.90;;;;;;;;;;10272024;28;20043;-84
2023/02/19 01:50:34;;;;;;;1.65;1.23;;;;;;;;;;10256910;28;20042;-83
2023/02/19 01:55:40;;;;;;;1.40;1.30;;;;;;;;;;10291601;28;20042;-83
2023/02/19 02:00:43;;;;;;;0.90;0.90;;;;;;;;;;10271438;28;20054;-83
2023/02/19 02:05:54;;;;;;;1.17;1.08;;;;;;;;;;10280296;28;20081;-84
2023/02/19 02:10:59;;;;;;;0.70;0.70;;;;;;;;;;10274427;28;20536;-83
2023/02/19 02:16:13;;;;;;;0.82;0.82;;;;;;;;;;10272650;28;20053;-84
2023/02/19 02:21:57;;;;;;;1.05;1.02;;;;;;;;;;10279593;28;20046;-84
2023/02/19 02:27:28;;;;;;;1.10;0.85;;;;;;;;;;10250501;28;20502;-84
2023/02/19 02:32:38;;;;;;;0.75;0.75;;;;;;;;;;10285940;28;20053;-83
2023/02/19 02:37:43;;;;;;;0.68;0.68;;;;;;;;;;10287185;28;20595;-83
2023/02/19 02:42:48;;;;;;;1.58;1.33;;;;;;;;;;10272795;28;20047;-83
2023/02/19 02:47:56;;;;;;;1.25;1.00;;;;;;;;;;10280453;28;20082;-83
2023/02/19 02:58:27;;;;;;;0.80;0.80;;;;;;;;;;10256904;28;20076;-83
2023/02/19 03:03:35;;;;;;;;;;;;;;;;;;10278051;28;20054;-84
2023/02/19 03:08:43;;;;;;;0.93;0.85;;;;;;;;;;10281515;28;19922;-84
2023/02/19 03:19:21;;;;;;;1.27;1.17;;;;;;;;;;10275113;28;20038;-84
2023/02/19 03:29:56;;;;;;;1.30;1.20;;;;;;;;;;10286173;28;20066;-85
2023/02/19 03:35:05;;;;;;;1.38;1.20;;;;;;;;;;10271790;28;20053;-84
2023/02/19 03:40:11;;;;;;;1.45;1.30;;;;;;;;;;10293959;28;20125;-85
2023/02/19 03:45:28;;;;;;;1.13;1.02;;;;;;;;;;10307155;28;20376;-85
2023/02/19 03:50:42;;;;;;;1.13;1.02;;;;;;;;;;10276595;28;20042;-84
2023/02/19 03:55:52;;;;;;;1.63;1.20;;;;;;;;;;10271146;28;20134;-84
2023/02/19 04:01:00;;;;;;;1.05;0.95;;;;;;;;;;10274685;28;20126;-85
2023/02/19 04:06:09;;;;;;;0.75;0.75;;;;;;;;;;10272721;28;20138;-84
2023/02/19 04:11:16;;;;;;;0.82;0.82;;;;;;;;;;10281818;28;20118;-84
2023/02/19 04:16:24;;;;;;;0.80;0.80;;;;;;;;;;10279058;28;20053;-85
2023/02/19 04:21:30;;;;;;;1.30;0.85;;;;;;;;;;10277122;28;20676;-84
2023/02/19 04:26:34;;;;;;;1.00;0.63;;;;;;;;;;10278148;28;20042;-84
2023/02/19 04:31:38;;;;;;;1.02;0.80;;;;;;;;;;10281763;28;20462;-85
2023/02/19 04:36:43;;;;;;;0.98;0.45;;;;;;;;;;10273115;28;20051;-85
2023/02/19 04:41:47;;;;;;;0.45;0.45;;;;;;;;;;10254563;28;20074;-86
2023/02/19 04:46:50;;;;;;;0.60;0.60;;;;;;;;;;10281120;28;20047;-86
2023/02/19 04:51:55;;;;;;;0.40;0.40;;;;;;;;;;10267954;28;20051;-86
2023/02/19 04:56:58;;;;;;;0.63;0.60;;;;;;;;;;10277097;28;20581;-86
2023/02/19 05:02:01;;;;;;;0.55;0.55;;;;;;;;;;10269675;28;20053;-86
2023/02/19 05:07:06;;;;;;;0.50;0.40;;;;;;;;;;10269667;28;20105;-87
2023/02/19 05:12:09;;;;;;;0.60;0.47;;;;;;;;;;10268189;28;20053;-84
2023/02/19 05:17:12;;;;;;;1.40;0.35;;;;;;;;;;10273106;28;20043;-85
2023/02/19 05:22:18;;;;;;;1.20;0.50;;;;;;;;;;10277869;28;20609;-84
2023/02/19 05:27:21;;;;;;;0.65;0.65;;;;;;;;;;10273682;28;20529;-85
2023/02/19 05:32:24;;;;;;;0.90;0.60;;;;;;;;;;10261399;28;20043;-84
2023/02/19 05:37:29;;;;;;;0.80;0.60;;;;;;;;;;10279711;28;20062;-84
2023/02/19 05:42:32;;;;;;;0.85;0.65;;;;;;;;;;10282219;28;20054;-86
2023/02/19 05:47:36;;;;;;;1.88;1.10;;;;;;;;;;10285019;28;20121;-85
2023/02/19 05:52:40;;;;;;;1.27;0.80;;;;;;;;;;10301357;28;20185;-85
2023/02/19 05:57:45;;;;;;;1.52;1.00;;;;;;;;;;10286516;28;20065;-85
2023/02/19 06:02:49;;;;;;;1.98;1.20;;;;;;;;;;10297028;28;20046;-85
2023/02/19 06:07:54;;;;;;;2.00;0.80;;;;;;;;;;10286603;28;20169;-84
2023/02/19 06:12:57;;;;;;;2.38;1.23;;;;;;;;;;10275746;28;20433;-85
2023/02/19 06:18:01;;;;;;;2.55;1.40;;;;;;;;;;10278260;28;20053;-84
2023/02/19 06:23:06;;;;;;;2.30;1.15;;;;;;;;;;10284907;28;20124;-83
2023/02/19 06:28:09;;;;;;;2.30;1.05;;;;;;;;;;10266914;28;20424;-84
2023/02/19 06:33:14;;;;;;;2.67;1.30;;;;;;;;;;10272041;28;20047;-83
2023/02/19 06:38:21;;;;;;;5.53;1.52;;;;;;;;;;10266965;28;20039;-83
2023/02/19 06:43:24;;;;;;;2.10;1.02;;;;;;;;;;10276894;28;20762;-83
2023/02/19 06:48:29;;;;;;;2.28;1.02;;;;;;;;;;10284780;28;20046;-81
2023/02/19 06:53:33;;;;;;;2.28;1.30;;;;;;;;;;10286279;28;20414;-82
2023/02/19 06:58:37;;;;;;;2.70;1.17;;;;;;;;;;10275053;28;20054;-81
2023/02/19 07:03:40;;;;;;;3.88;1.27;;;;;;;;;;10250311;28;20421;-81
2023/02/19 07:08:45;;;;;;;3.50;0.93;;;;;;;;;;10291148;28;20042;-80
2023/02/19 07:13:48;;;;;;;3.22;1.50;;;;;;;;;;10278862;28;20051;-81
2023/02/19 07:18:51;;;;;;;3.38;1.75;;;;;;;;;;10276866;28;20535;-81
2023/02/19 07:23:57;;;;;;;4.45;1.83;;;;;;;;;;10282317;28;20828;-81
2023/02/19 07:29:00;;;;;;;2.45;1.20;;;;;;;;;;10246144;28;20049;-82
2023/02/19 07:34:03;;;;;;;3.45;1.40;;;;;;;;;;10278761;28;20061;-82
2023/02/19 07:39:11;;;;;;;3.58;1.65;;;;;;;;;;10272339;28;20042;-82
2023/02/19 07:44:15;;;;;;;3.20;2.38;;;;;;;;;;10273233;28;20043;-81
2023/02/19 07:49:19;;;;;;;6.32;3.08;;;;;;;;;;10291954;28;20425;-80
2023/02/19 07:54:24;;;;;;;7.57;3.53;;;;;;;;;;10281091;28;20038;-81
2023/02/19 07:59:28;;;;;;;4.53;2.10;;;;;;;;;;10287308;28;20053;-84
2023/02/19 08:04:31;;;;;;;8.27;2.65;;;;;;;;;;10279044;28;20046;-84
2023/02/19 08:09:36;;;;;;;5.70;1.42;;;;;;;;;;10287831;28;20049;-85
2023/02/19 08:14:40;;;;;;;3.50;1.50;;;;;;;;;;10302729;28;20054;-83
2023/02/19 08:20:32;;;;;;;2.58;1.27;;;;;;;;;;10573267;27;20371;-83
2023/02/19 08:25:36;;;;;;;4.50;1.52;;;;;;;;;;10515654;28;20052;-82
2023/02/19 08:30:43;;;;;;;4.70;2.00;;;;;;;;;;10526131;27;20047;-83
2023/02/19 08:35:48;;;;;;;5.50;2.55;;;;;;;;;;10532880;28;20044;-81
2023/02/19 08:40:52;;;;;;;4.75;1.77;;;;;;;;;;10516436;28;20418;-81
2023/02/19 08:45:55;;;;;;;3.30;1.98;;;;;;;;;;10512208;28;20039;-83
2023/02/19 08:51:02;;;;;;;3.72;1.60;;;;;;;;;;10528392;28;20264;-83
2023/02/19 08:56:06;;;;;;;4.43;2.38;;;;;;;;;;10498207;27;20048;-82
2023/02/19 09:01:10;;;;;;;4.28;2.00;;;;;;;;;;10534696;28;20044;-83
2023/02/19 09:06:18;;;;;;;4.97;2.28;;;;;;;;;;10512780;28;20063;-81
2023/02/19 09:11:22;;;;;;;7.20;2.17;;;;;;;;;;10509768;28;20049;-81
2023/02/19 09:16:26;;;;;;;4.03;1.73;;;;;;;;;;10501247;28;20044;-81
2023/02/19 09:21:30;;;;;;;6.60;2.60;;;;;;;;;;10498984;28;20045;-81
2023/02/19 09:26:34;;;;;;;6.60;2.70;;;;;;;;;;10468380;28;20044;-82
2023/02/19 09:31:39;;;;;;;4.57;2.35;;;;;;;;;;10471648;28;20041;-82
2023/02/19 09:36:44;;;;;;;6.55;2.95;;;;;;;;;;10478809;28;20496;-82
2023/02/19 09:41:51;;;;;;;8.32;3.30;;;;;;;;;;10479570;28;20068;-83
2023/02/19 09:46:56;;;;;;;5.47;2.83;;;;;;;;;;10483318;28;20508;-84
2023/02/19 09:52:09;;;;;;;5.97;2.55;;;;;;;;;;10462353;28;20044;-83
2023/02/19 09:57:16;;;;;;;7.88;3.00;;;;;;;;;;10495445;28;20045;-84
2023/02/19 10:02:22;;;;;;;5.95;2.10;;;;;;;;;;10485232;28;20091;-82
2023/02/19 10:07:36;;;;;;;6.18;2.33;;;;;;;;;;10457411;28;20040;-80
2023/02/19 10:12:42;;;;;;;3.47;1.92;;;;;;;;;;10480754;28;20051;-80
2023/02/19 10:17:46;;;;;;;9.77;4.60;;;;;;;;;;10479826;28;20044;-81
2023/02/19 10:22:55;;;;;;;8.60;3.72;;;;;;;;;;10467600;28;20044;-81
2023/02/19 10:27:59;;;;;;;3.60;1.88;;;;;;;;;;10446244;28;20396;-81
2023/02/19 10:33:08;;;;;;;8.68;2.30;;;;;;;;;;10440298;28;20322;-82
2023/02/19 10:38:17;;;;;;;7.72;2.90;;;;;;;;;;10438926;28;20522;-81
2023/02/19 10:43:30;;;;;;;7.00;2.67;;;;;;;;;;10437455;28;20212;-81
2023/02/19 10:48:36;;;;;;;5.43;2.40;;;;;;;;;;10442343;28;20136;-82
2023/02/19 10:53:44;;;;;;;12.00;5.03;;;;;;;;;;10484738;28;20130;-82
2023/02/19 10:58:47;;;;;;;6.47;2.47;;;;;;;;;;10446083;28;20048;-80
2023/02/19 11:03:52;;;;;;;7.57;2.85;;;;;;;;;;10425135;28;20040;-81
2023/02/19 11:09:02;;;;;;;4.70;2.45;;;;;;;;;;10430618;28;20045;-82
2023/02/19 11:14:14;;;;;;;5.80;3.05;;;;;;;;;;10423571;28;20531;-81
2023/02/19 11:19:35;;;;;;;6.18;2.45;;;;;;;;;;10434386;28;20048;-81
2023/02/19 11:25:24;;;;;;;5.03;2.38;;;;;;;;;;10431812;28;20052;-84
2023/02/19 11:30:41;;;;;;;6.82;3.40;;;;;;;;;;10437004;28;20327;-84
2023/02/19 11:35:55;;;;;;;5.32;2.88;;;;;;;;;;10484996;27;20137;-84
2023/02/19 11:41:18;;;;;;;9.15;3.38;;;;;;;;;;10556123;27;20315;-84
2023/02/19 11:46:33;;;;;;;8.23;2.50;;;;;;;;;;10570976;27;20357;-86
2023/02/19 11:51:49;;;;;;;6.15;2.45;;;;;;;;;;10576538;27;20422;-85
2023/02/19 11:57:04;;;;;;;7.85;2.15;;;;;;;;;;10578066;27;20353;-83
2023/02/19 12:02:33;;;;;;;5.07;2.38;;;;;;;;;;10583730;27;20039;-84
2023/02/19 12:08:23;;;;;;;4.78;2.30;;;;;;;;;;10585757;27;20039;-83
2023/02/19 12:13:42;;;;;;;5.75;2.42;;;;;;;;;;10574199;27;20582;-83
2023/02/19 12:19:08;;;;;;;5.20;2.28;;;;;;;;;;10576430;27;20039;-85
2023/02/19 12:24:41;;;;;;;7.97;2.33;;;;;;;;;;10572311;28;20098;-83
2023/02/19 12:30:04;;;;;;;3.83;2.00;;;;;;;;;;10585793;27;20122;-84
2023/02/19 12:35:44;;;;;;;3.25;1.58;;;;;;;;;;10594432;27;20526;-84
2023/02/19 12:41:01;;;;;;;4.65;2.15;;;;;;;;;;10582443;27;20537;-83
2023/02/19 12:46:14;;;;;;;4.40;1.60;;;;;;;;;;10567614;27;20494;-84
2023/02/19 12:51:22;;;;;;;3.72;2.03;;;;;;;;;;10590801;27;20603;-84
2023/02/19 12:56:29;;;;;;;4.68;1.73;;;;;;;;;;10586861;27;20531;-84
2023/02/19 13:01:40;;;;;;;3.28;1.75;;;;;;;;;;10576766;27;20545;-84
2023/02/19 13:06:47;;;;;;;4.95;2.30;;;;;;;;;;10587817;27;20051;-85
2023/02/19 13:11:56;;;;;;;3.47;1.50;;;;;;;;;;10574334;27;20044;-84
2023/02/19 13:17:07;;;;;;;2.50;1.30;;;;;;;;;;10593205;27;20553;-85
2023/02/19 13:28:20;;;;;;;1.85;1.10;;;;;;;;;;10601995;27;20051;-84
2023/02/19 13:33:39;;;;;;;1.45;0.95;;;;;;;;;;10575645;27;20042;-84
2023/02/19 13:38:44;;;;;;;1.55;1.10;;;;;;;;;;10571875;27;20043;-85
2023/02/19 13:43:56;;;;;;;1.83;1.27;;;;;;;;;;10586720;27;20069;-84
2023/02/19 13:49:43;;;;;;;0.93;0.85;;;;;;;;;;10585357;27;20035;-83
2023/02/19 13:54:47;;;;;;;2.35;1.10;;;;;;;;;;10581791;27;20055;-85
2023/02/19 13:59:52;;;;;;;3.03;1.20;;;;;;;;;;10579135;27;20035;-84
2023/02/19 14:04:58;;;;;;;2.83;2.05;;;;;;;;;;10586731;27;20043;-85
2023/02/19 14:10:08;;;;;;;2.88;2.03;;;;;;;;;;10591823;27;20063;-84
2023/02/19 14:15:48;;;;;;;2.22;1.23;;;;;;;;;;10572474;27;20031;-84
2023/02/19 14:21:07;;;;;;;2.40;1.90;;;;;;;;;;10590486;27;20039;-84
2023/02/19 14:26:16;;;;;;;2.15;1.45;;;;;;;;;;10587831;27;20070;-84
2023/02/19 14:31:33;;;;;;;2.75;1.70;;;;;;;;;;10592809;27;20042;-84
2023/02/19 14:36:44;;;;;;;2.28;1.80;;;;;;;;;;10582382;27;20076;-83
2023/02/19 14:41:51;;;;;;;2.50;1.40;;;;;;;;;;10597882;27;20051;-84
2023/02/19 14:46:58;;;;;;;1.25;1.05;;;;;;;;;;10580631;27;20059;-84
2023/02/19 14:52:05;;;;;;;2.28;1.30;;;;;;;;;;10598420;27;20046;-84
2023/02/19 14:57:16;;;;;;;1.20;1.00;;;;;;;;;;10596813;27;20488;-84
2023/02/19 15:02:20;;;;;;;2.03;1.48;;;;;;;;;;10596038;27;20054;-84
2023/02/19 15:07:27;;;;;;;2.28;1.27;;;;;;;;;;10592425;27;20043;-81
2023/02/19 15:12:35;;;;;;;0.70;0.70;;;;;;;;;;10608278;27;20325;-81
2023/02/19 15:17:41;;;;;;;0.63;0.63;;;;;;;;;;10598400;27;20051;-81
2023/02/19 15:22:45;;;;;;;1.17;0.93;;;;;;;;;;10584388;27;20040;-82
2023/02/19 15:27:50;;;;;;;1.85;0.95;;;;;;;;;;10600347;27;20535;-82
2023/02/19 15:32:54;;;;;;;1.73;0.82;;;;;;;;;;10605577;27;20047;-81
2023/02/19 15:38:00;;;;;;;1.20;0.70;;;;;;;;;;10599647;27;20114;-81
2023/02/19 15:43:05;;;;;;;0.57;0.57;;;;;;;;;;10594165;27;20106;-81
2023/02/19 15:48:11;;;;;;;1.20;0.60;;;;;;;;;;10584261;27;20049;-81
2023/02/19 15:53:18;;;;;;;0.95;0.85;;;;;;;;;;10593067;27;20043;-80
2023/02/19 15:58:27;;;;;;;0.95;0.70;;;;;;;;;;10586381;27;20137;-80
2023/02/19 16:03:31;;;;;;;1.90;1.30;;;;;;;;;;10587712;27;20069;-80
2023/02/19 16:08:37;;;;;;;3.85;2.20;;;;;;;;;;10580647;27;20043;-80
2023/02/19 16:13:41;;;;;;;3.10;1.90;;;;;;;;;;10588871;27;20055;-81
2023/02/19 16:18:47;;;;;;;4.18;2.60;;;;;;;;;;10587300;27;20055;-80
2023/02/19 16:23:55;;;;;;;3.70;1.83;;;;;;;;;;10584702;28;20059;-82
2023/02/19 16:29:00;;;;;;;2.33;1.55;;;;;;;;;;10579597;27;20050;-83
2023/02/19 16:34:18;;;;;;;1.35;0.88;;;;;;;;;;10578875;28;20046;-83
2023/02/19 16:39:23;;;;;;;1.58;0.63;;;;;;;;;;10589350;27;20042;-83
2023/02/19 16:44:35;;;;;;;0.45;0.45;;;;;;;;;;10593669;27;20319;-83
2023/02/19 16:49:41;;;;;;;0.73;0.60;;;;;;;;;;10581554;27;20096;-83
2023/02/19 16:54:44;;;;;;;1.13;0.80;;;;;;;;;;10581808;27;20069;-83
2023/02/19 16:59:49;;;;;;;1.10;0.77;;;;;;;;;;10595921;27;20639;-82
2023/02/19 17:04:54;;;;;;;1.90;1.23;;;;;;;;;;10589244;27;20074;-82
2023/02/19 17:09:57;;;;;;;1.80;1.15;;;;;;;;;;10599042;27;20039;-83
2023/02/19 17:15:02;;;;;;;1.83;1.10;;;;;;;;;;10591636;27;20050;-82
2023/02/19 17:20:20;;;;;;;2.92;1.60;;;;;;;;;;10599260;27;20059;-82
2023/02/19 17:25:24;;;;;;;4.80;2.40;;;;;;;;;;10594118;27;20413;-82
2023/02/19 17:30:32;;;;;;;5.13;1.98;;;;;;;;;;10594255;27;20043;-82
2023/02/19 17:35:36;;;;;;;2.25;1.50;;;;;;;;;;10595548;27;20035;-83
2023/02/19 17:40:39;;;;;;;3.55;1.83;;;;;;;;;;10593702;27;20050;-84
2023/02/19 17:45:47;;;;;;;4.10;1.65;;;;;;;;;;10590868;27;20050;-82
2023/02/19 17:50:51;;;;;;;2.95;2.10;;;;;;;;;;10607095;27;20482;-82
2023/02/19 17:55:54;;;;;;;4.50;3.70;;;;;;;;;;10610685;27;20049;-82
2023/02/19 18:00:59;;;;;;;2.70;2.25;;;;;;;;;;10603204;27;20070;-82
2023/02/19 18:06:03;;;;;;;1.60;1.50;;;;;;;;;;10597184;27;20126;-82
2023/02/19 18:11:09;;;;;;;2.85;1.08;;;;;;;;;;10596884;27;20067;-82
2023/02/19 18:16:18;;;;;;;1.10;1.00;;;;;;;;;;10584928;27;20091;-80
2023/02/19 18:21:24;;;;;;;1.45;1.00;;;;;;;;;;10587227;27;20047;-81
2023/02/19 18:26:28;;;;;;;0.80;0.77;;;;;;;;;;10581093;27;20035;-80
2023/02/19 18:31:35;;;;;;;0.57;0.57;;;;;;;;;;10595183;27;20050;-80
2023/02/19 18:36:39;;;;;;;1.30;1.10;;;;;;;;;;10598782;27;20051;-81
2023/02/19 18:41:47;;;;;;;1.55;0.90;;;;;;;;;;10506421;22;20044;-82
2023/02/19 18:46:52;;;;;;;2.65;2.10;;;;;;;;;;10480285;28;20155;-80
2023/02/19 18:51:58;;;;;;;;;;;;;;;;;;10480309;28;20040;-80
2023/02/19 18:57:03;;;;;;;4.65;2.55;;;;;;;;;;10476089;28;19920;-80
2023/02/19 19:02:08;;;;;;;2.30;1.48;;;;;;;;;;10468466;28;21667;-80
2023/02/19 19:07:14;;;;;;;1.95;1.70;;;;;;;;;;10476546;28;20045;-81
2023/02/19 19:12:17;;;;;;;2.00;1.77;;;;;;;;;;10471446;28;20043;-81
2023/02/19 19:17:22;;;;;;;3.47;2.30;;;;;;;;;;10469333;28;20045;-79
2023/02/19 19:22:26;;;;;;;2.03;1.83;;;;;;;;;;10465051;28;20566;-84
2023/02/19 19:27:30;;;;;;;3.47;1.92;;;;;;;;;;10476384;28;20045;-84
2023/02/19 19:32:35;;;;;;;1.55;1.25;;;;;;;;;;10471776;28;20499;-87
2023/02/19 19:37:38;;;;;;;2.10;1.33;;;;;;;;;;10473308;28;20056;-83
2023/02/19 19:42:41;;;;;;;4.70;1.98;;;;;;;;;;10481422;28;20040;-82
2023/02/19 19:47:48;;;;;;;4.22;2.85;;;;;;;;;;10476051;28;20049;-85
2023/02/19 19:52:52;;;;;;;7.05;4.45;;;;;;;;;;10469344;28;20407;-81
2023/02/19 19:57:55;;;;;;;4.97;3.50;;;;;;;;;;10464742;28;20416;-82
2023/02/19 20:03:00;;;;;;;7.72;3.20;;;;;;;;;;10465856;28;20132;-82
2023/02/19 20:08:04;;;;;;;4.65;2.67;;;;;;;;;;10458947;28;20072;-84
2023/02/19 20:13:07;;;;;;;4.03;2.58;;;;;;;;;;10476192;28;20045;-81
2023/02/19 20:18:12;;;;;;;8.38;3.83;;;;;;;;;;10471621;28;20049;-80
2023/02/19 20:23:16;;;;;;;5.13;2.90;;;;;;;;;;10465636;28;20279;-81
2023/02/19 20:28:20;;;;;;;4.10;2.42;;;;;;;;;;10465639;28;20127;-81
2023/02/19 20:33:28;;;;;;;2.10;1.83;;;;;;;;;;10452550;28;20045;-82
2023/02/19 20:38:32;;;;;;;5.35;3.63;;;;;;;;;;10447755;28;20045;-82
2023/02/19 20:43:36;;;;;;;5.18;3.20;;;;;;;;;;10465617;28;20070;-81
2023/02/19 20:48:41;;;;;;;2.97;2.30;;;;;;;;;;10449907;28;20491;-81
2023/02/19 20:53:44;;;;;;;4.00;3.00;;;;;;;;;;10444405;28;20037;-80
2023/02/19 20:58:48;;;;;;;3.17;2.42;;;;;;;;;;10465279;28;20044;-80
2023/02/19 21:03:53;;;;;;;10.65;6.22;;;;;;;;;;10458343;28;20040;-83
2023/02/19 21:08:59;;;;;;;7.70;4.47;;;;;;;;;;10453589;28;20333;-83
2023/02/19 21:14:03;;;;;;;3.90;3.45;;;;;;;;;;10459021;28;20164;-84
2023/02/19 21:19:08;;;;;;;6.38;3.45;;;;;;;;;;10470290;28;20310;-80
2023/02/19 21:24:13;;;;;;;4.40;3.40;;;;;;;;;;10467567;28;20102;-80
2023/02/19 21:29:19;;;;;;;5.07;2.70;;;;;;;;;;10454506;28;20128;-81
2023/02/19 21:34:26;;;;;;;4.57;3.60;;;;;;;;;;10460261;28;20348;-81
2023/02/19 21:39:31;;;;;;;4.65;3.00;;;;;;;;;;10458490;28;20128;-81
2023/02/19 21:44:35;;;;;;;1.98;1.63;;;;;;;;;;10471847;28;20048;-86
2023/02/19 21:49:40;;;;;;;2.05;1.48;;;;;;;;;;10483020;28;20499;-83
2023/02/19 21:54:44;;;;;;;3.60;2.47;;;;;;;;;;10471925;28;20074;-83
2023/02/19 21:59:48;;;;;;;2.45;1.90;;;;;;;;;;10473645;28;20463;-84
2023/02/19 22:04:57;;;;;;;2.55;1.63;;;;;;;;;;10472785;28;20662;-86
2023/02/19 22:10:01;;;;;;;2.55;1.77;;;;;;;;;;10474574;28;20121;-82
2023/02/19 22:15:06;;;;;;;2.85;2.30;;;;;;;;;;10469846;28;20487;-86
2023/02/19 22:20:12;;;;;;;3.38;2.25;;;;;;;;;;10448528;28;20491;-85
2023/02/19 22:25:16;;;;;;;2.42;1.80;;;;;;;;;;10460227;28;20469;-84
2023/02/19 22:30:19;;;;;;;2.53;2.00;;;;;;;;;;10454463;28;20060;-83
2023/02/19 22:35:25;;;;;;;3.47;2.38;;;;;;;;;;10463273;28;20052;-85
2023/02/19 22:40:29;;;;;;;2.55;2.13;;;;;;;;;;10464434;28;20503;-84
2023/02/19 22:45:32;;;;;;;3.50;2.40;;;;;;;;;;10448075;28;20052;-83
2023/02/19 22:50:38;;;;;;;3.45;2.20;;;;;;;;;;10460711;28;20107;-82
2023/02/19 22:55:42;;;;;;;3.42;2.38;;;;;;;;;;10457976;28;20051;-85
2023/02/19 23:00:46;;;;;;;2.20;1.95;;;;;;;;;;10459398;28;20090;-83
2023/02/19 23:05:51;;;;;;;4.68;2.95;;;;;;;;;;10472491;28;20690;-83
2023/02/19 23:10:54;;;;;;;4.50;3.17;;;;;;;;;;10462833;28;20075;-84
2023/02/19 23:15:58;;;;;;;5.65;2.85;;;;;;;;;;10454103;28;20068;-83
2023/02/19 23:21:03;;;;;;;5.28;3.50;;;;;;;;;;10452750;28;20053;-84
2023/02/19 23:26:06;;;;;;;4.35;2.65;;;;;;;;;;10458672;28;20052;-83
2023/02/19 23:31:11;;;;;;;4.18;2.67;;;;;;;;;;10446710;28;20040;-83
2023/02/19 23:36:16;;;;;;;4.63;2.90;;;;;;;;;;10460584;28;20071;-82
2023/02/19 23:41:20;;;;;;;2.53;2.10;;;;;;;;;;10449344;28;20048;-83
2023/02/19 23:46:23;;;;;;;3.15;2.35;;;;;;;;;;10453167;28;20291;-83
2023/02/19 23:51:28;;;;;;;3.20;2.47;;;;;;;;;;10464926;28;20091;-85
2023/02/19 23:56:32;;;;;;;4.68;2.92;;;;;;;;;;10446650;28;20071;-83
